createdAt,value
2019-02-06T00:00:38.500Z,1.90
2019-02-06T00:03:07.274Z,1.90
2019-02-06T00:05:35.753Z,1.90
2019-02-06T00:08:04.514Z,1.90
2019-02-06T00:10:32.999Z,1.90
2019-02-06T00:13:01.505Z,1.90
2019-02-06T00:15:30.156Z,1.90
2019-02-06T00:17:58.669Z,1.90
2019-02-06T00:20:27.546Z,1.90
2019-02-06T00:22:56.120Z,1.90
2019-02-06T00:25:24.547Z,1.90
2019-02-06T00:27:52.958Z,1.90
2019-02-06T00:30:23.031Z,1.90
2019-02-06T00:32:51.432Z,2.00
2019-02-06T00:35:25.893Z,2.00
2019-02-06T00:37:51.708Z,1.90
2019-02-06T00:40:20.116Z,1.90
2019-02-06T00:42:48.545Z,1.90
2019-02-06T00:45:16.953Z,1.90
2019-02-06T00:47:48.604Z,2.00
2019-02-06T00:50:17.456Z,2.00
2019-02-06T00:52:45.860Z,2.00
2019-02-06T00:55:15.145Z,2.00
2019-02-06T00:57:43.621Z,2.00
2019-02-06T01:00:16.756Z,2.10
2019-02-06T01:02:45.356Z,2.10
2019-02-06T01:05:17.685Z,2.10
2019-02-06T01:07:46.357Z,2.20
2019-02-06T01:10:17.534Z,2.20
2019-02-06T01:12:46.006Z,2.20
2019-02-06T01:15:15.068Z,2.20
2019-02-06T01:17:43.545Z,2.20
2019-02-06T01:20:16.809Z,2.20
2019-02-06T01:22:45.209Z,2.20
2019-02-06T01:25:18.051Z,2.10
2019-02-06T01:27:46.476Z,2.10
2019-02-06T01:30:19.092Z,2.10
2019-02-06T01:32:47.601Z,2.00
2019-02-06T01:35:16.437Z,2.00
2019-02-06T01:37:44.844Z,2.00
2019-02-06T01:40:18.454Z,2.00
2019-02-06T01:42:46.990Z,2.00
2019-02-06T01:45:20.189Z,2.00
2019-02-06T01:47:48.616Z,2.00
2019-02-06T01:50:18.839Z,2.00
2019-02-06T01:52:47.315Z,1.90
2019-02-06T01:55:16.082Z,1.90
2019-02-06T01:57:44.513Z,2.00
2019-02-06T02:00:18.609Z,2.00
2019-02-06T02:02:47.023Z,2.00
2019-02-06T02:05:17.937Z,2.00
2019-02-06T02:07:47.105Z,2.00
2019-02-06T02:10:15.670Z,2.10
2019-02-06T02:12:44.642Z,2.10
2019-02-06T02:15:18.357Z,2.10
2019-02-06T02:17:46.853Z,2.10
2019-02-06T02:20:18.349Z,2.10
2019-02-06T02:22:47.151Z,2.20
2019-02-06T02:25:15.620Z,2.30
2019-02-06T02:27:46.005Z,2.40
2019-02-06T02:30:21.942Z,2.50
2019-02-06T02:32:51.262Z,2.60
2019-02-06T02:35:19.809Z,2.60
2019-02-06T02:37:50.337Z,2.70
2019-02-06T02:40:18.770Z,2.80
2019-02-06T02:42:47.265Z,2.80
2019-02-06T02:45:17.185Z,2.90
2019-02-06T02:47:45.988Z,2.90
2019-02-06T02:50:14.566Z,3.00
2019-02-06T02:52:43.048Z,3.00
2019-02-06T02:55:13.681Z,3.00
2019-02-06T02:57:42.294Z,3.10
2019-02-06T03:00:20.181Z,3.10
2019-02-06T03:02:53.098Z,3.10
2019-02-06T03:05:23.095Z,3.10
2019-02-06T03:07:51.502Z,3.20
2019-02-06T03:10:20.001Z,3.20
2019-02-06T03:12:48.574Z,3.20
2019-02-06T03:15:17.056Z,3.20
2019-02-06T03:17:45.475Z,3.30
2019-02-06T03:20:14.744Z,3.30
2019-02-06T03:22:43.409Z,3.30
2019-02-06T03:25:14.004Z,3.30
2019-02-06T03:27:42.491Z,3.30
2019-02-06T03:30:14.249Z,3.30
2019-02-06T03:32:42.996Z,3.30
2019-02-06T03:35:11.678Z,3.30
2019-02-06T03:37:40.095Z,3.30
2019-02-06T03:40:11.682Z,3.30
2019-02-06T03:42:40.351Z,3.20
2019-02-06T03:45:11.258Z,3.20
2019-02-06T03:47:39.738Z,3.20
2019-02-06T03:50:11.228Z,3.10
2019-02-06T03:52:39.656Z,3.10
2019-02-06T03:55:09.518Z,3.10
2019-02-06T03:57:38.796Z,3.00
2019-02-06T04:00:10.448Z,3.00
2019-02-06T04:02:39.115Z,2.90
2019-02-06T04:05:09.542Z,2.90
2019-02-06T04:07:38.066Z,2.90
2019-02-06T04:10:19.517Z,2.90
2019-02-06T04:12:48.023Z,2.80
2019-02-06T04:15:16.946Z,2.80
2019-02-06T04:17:45.388Z,2.80
2019-02-06T04:20:18.371Z,2.80
2019-02-06T04:22:46.779Z,2.80
2019-02-06T04:25:15.564Z,2.70
2019-02-06T04:27:44.319Z,2.70
2019-02-06T04:30:16.046Z,2.70
2019-02-06T04:32:44.556Z,2.70
2019-02-06T04:35:14.013Z,2.70
2019-02-06T04:37:42.535Z,2.70
2019-02-06T04:40:14.094Z,2.70
2019-02-06T04:42:42.642Z,2.70
2019-02-06T04:45:13.263Z,2.70
2019-02-06T04:47:41.699Z,2.70
2019-02-06T04:50:14.808Z,2.70
2019-02-06T04:52:43.336Z,2.60
2019-02-06T04:55:14.160Z,2.60
2019-02-06T04:57:42.607Z,2.70
2019-02-06T05:00:16.688Z,2.70
2019-02-06T05:02:45.131Z,2.60
2019-02-06T05:05:13.564Z,2.70
2019-02-06T05:07:41.993Z,2.60
2019-02-06T05:10:12.971Z,2.60
2019-02-06T05:12:43.443Z,2.60
2019-02-06T05:15:13.334Z,2.60
2019-02-06T05:17:41.755Z,2.60
2019-02-06T05:20:22.064Z,2.60
2019-02-06T05:22:50.560Z,2.60
2019-02-06T05:25:19.053Z,2.50
2019-02-06T05:27:47.766Z,2.50
2019-02-06T05:30:16.353Z,2.40
2019-02-06T05:32:44.843Z,2.30
2019-02-06T05:35:13.440Z,2.30
2019-02-06T05:37:41.868Z,2.20
2019-02-06T05:40:11.423Z,2.20
2019-02-06T05:42:39.868Z,2.20
2019-02-06T05:45:10.426Z,2.20
2019-02-06T05:47:38.874Z,2.20
2019-02-06T05:50:12.880Z,2.20
2019-02-06T05:52:41.299Z,2.20
2019-02-06T05:55:09.875Z,2.20
2019-02-06T05:57:38.331Z,2.20
2019-02-06T06:00:28.356Z,2.20
2019-02-06T06:02:56.934Z,2.20
2019-02-06T06:05:25.381Z,2.20
2019-02-06T06:07:54.279Z,2.20
2019-02-06T06:10:23.063Z,2.30
2019-02-06T06:12:51.482Z,2.30
2019-02-06T06:15:20.652Z,2.30
2019-02-06T06:17:49.159Z,2.40
2019-02-06T06:20:20.783Z,2.40
2019-02-06T06:22:49.502Z,2.40
2019-02-06T06:25:19.787Z,2.50
2019-02-06T06:27:48.655Z,2.40
2019-02-06T06:30:20.178Z,2.50
2019-02-06T06:32:48.965Z,2.50
2019-02-06T06:35:17.998Z,2.50
2019-02-06T06:37:57.688Z,2.50
2019-02-06T06:40:19.403Z,2.50
2019-02-06T06:42:48.248Z,2.50
2019-02-06T06:45:24.347Z,2.50
2019-02-06T06:47:53.229Z,2.50
2019-02-06T06:50:24.159Z,2.50
2019-02-06T06:52:53.252Z,2.50
2019-02-06T06:55:22.223Z,2.50
2019-02-06T06:57:50.999Z,2.50
2019-02-06T07:00:24.769Z,2.50
2019-02-06T07:02:53.464Z,2.50
2019-02-06T07:05:21.924Z,2.50
2019-02-06T07:07:50.987Z,2.50
2019-02-06T07:10:20.240Z,2.50
2019-02-06T07:12:48.853Z,2.60
2019-02-06T07:15:23.061Z,2.60
2019-02-06T07:17:51.575Z,2.60
2019-02-06T07:20:20.482Z,2.60
2019-02-06T07:22:48.899Z,2.60
2019-02-06T07:25:18.865Z,2.60
2019-02-06T07:27:47.446Z,2.70
2019-02-06T07:30:27.408Z,2.60
2019-02-06T07:32:55.890Z,2.70
2019-02-06T07:35:24.316Z,2.70
2019-02-06T07:37:52.846Z,2.70
2019-02-06T07:40:21.999Z,2.80
2019-02-06T07:42:50.679Z,2.80
2019-02-06T07:45:20.555Z,2.80
2019-02-06T07:47:49.110Z,2.80
2019-02-06T07:50:24.911Z,2.90
2019-02-06T07:52:53.342Z,2.90
2019-02-06T07:55:21.888Z,2.90
2019-02-06T07:57:50.402Z,3.00
2019-02-06T08:00:18.922Z,3.10
2019-02-06T08:02:47.579Z,3.10
2019-02-06T08:05:20.106Z,3.10
2019-02-06T08:07:48.998Z,3.10
2019-02-06T08:10:20.439Z,3.10
2019-02-06T08:12:49.016Z,3.20
2019-02-06T08:15:18.691Z,3.20
2019-02-06T08:17:47.534Z,3.30
2019-02-06T08:20:20.740Z,3.30
2019-02-06T08:22:49.254Z,3.40
2019-02-06T08:25:19.211Z,3.40
2019-02-06T08:27:47.828Z,3.40
2019-02-06T08:30:31.112Z,3.50
2019-02-06T08:33:00.132Z,3.50
2019-02-06T08:35:28.623Z,3.50
2019-02-06T08:37:57.149Z,3.50
2019-02-06T08:40:27.997Z,3.50
2019-02-06T08:42:56.651Z,3.50
2019-02-06T08:45:25.346Z,3.60
2019-02-06T08:47:53.960Z,3.60
2019-02-06T08:50:23.542Z,3.60
2019-02-06T08:52:52.276Z,3.60
2019-02-06T08:55:33.828Z,3.60
2019-02-06T08:58:02.748Z,3.60
2019-02-06T09:00:36.579Z,3.60
2019-02-06T09:03:06.343Z,3.70
2019-02-06T09:05:34.901Z,3.70
2019-02-06T09:08:03.671Z,3.70
2019-02-06T09:10:32.402Z,3.80
2019-02-06T09:13:01.050Z,3.80
2019-02-06T09:15:29.704Z,3.80
2019-02-06T09:17:58.220Z,3.90
2019-02-06T09:20:28.255Z,3.90
2019-02-06T09:22:57.310Z,3.90
2019-02-06T09:25:27.285Z,3.90
2019-02-06T09:27:55.867Z,3.90
2019-02-06T09:30:26.363Z,3.90
2019-02-06T09:32:55.911Z,4.00
2019-02-06T09:35:24.734Z,4.00
2019-02-06T09:37:53.670Z,4.10
2019-02-06T09:40:27.052Z,4.10
2019-02-06T09:42:55.611Z,4.20
2019-02-06T09:45:24.047Z,4.20
2019-02-06T09:47:52.461Z,4.30
2019-02-06T09:50:24.356Z,4.30
2019-02-06T09:52:52.839Z,4.40
2019-02-06T09:55:21.423Z,4.40
2019-02-06T09:57:49.955Z,4.50
2019-02-06T10:00:24.343Z,4.60
2019-02-06T10:02:57.591Z,4.60
2019-02-06T10:05:26.060Z,4.70
2019-02-06T10:07:54.490Z,4.80
2019-02-06T10:10:25.278Z,4.80
2019-02-06T10:12:54.004Z,4.90
2019-02-06T10:15:27.706Z,4.90
2019-02-06T10:17:56.788Z,5.00
2019-02-06T10:20:42.898Z,5.00
2019-02-06T10:23:11.495Z,5.00
2019-02-06T10:25:40.091Z,5.00
2019-02-06T10:28:08.508Z,5.10
2019-02-06T10:30:44.987Z,5.10
2019-02-06T10:33:15.121Z,5.10
2019-02-06T10:35:43.606Z,5.20
2019-02-06T10:38:12.282Z,5.20
2019-02-06T10:40:40.838Z,5.30
2019-02-06T10:43:09.419Z,5.30
2019-02-06T10:45:38.235Z,5.30
2019-02-06T10:48:07.116Z,5.40
2019-02-06T10:50:40.078Z,5.40
2019-02-06T10:53:08.755Z,5.50
2019-02-06T10:55:37.177Z,5.50
2019-02-06T10:58:05.958Z,5.50
2019-02-06T11:00:37.829Z,5.50
2019-02-06T11:03:06.436Z,5.60
2019-02-06T11:05:35.059Z,5.60
2019-02-06T11:08:04.279Z,5.50
2019-02-06T11:10:32.731Z,5.50
2019-02-06T11:13:01.147Z,5.50
2019-02-06T11:15:30.209Z,5.50
2019-02-06T11:17:58.824Z,5.50
2019-02-06T11:20:29.418Z,5.40
2019-02-06T11:22:57.972Z,5.40
2019-02-06T11:25:26.387Z,5.30
2019-02-06T11:27:54.832Z,5.30
2019-02-06T11:30:29.079Z,5.30
2019-02-06T11:32:57.519Z,5.30
2019-02-06T11:35:25.939Z,5.30
2019-02-06T11:37:54.442Z,5.20
2019-02-06T11:40:24.391Z,5.20
2019-02-06T11:42:53.722Z,5.20
2019-02-06T11:45:27.914Z,5.20
2019-02-06T11:47:56.339Z,5.20
2019-02-06T11:50:26.487Z,5.20
2019-02-06T11:52:54.914Z,5.30
2019-02-06T11:55:25.907Z,5.20
2019-02-06T11:57:54.318Z,5.30
2019-02-06T12:00:25.387Z,5.20
2019-02-06T12:02:53.827Z,5.30
2019-02-06T12:05:22.343Z,5.30
2019-02-06T12:07:50.865Z,5.30
2019-02-06T12:10:20.704Z,5.20
2019-02-06T12:12:49.387Z,5.20
2019-02-06T12:15:21.078Z,5.20
2019-02-06T12:17:49.560Z,5.20
2019-02-06T12:20:25.609Z,5.10
2019-02-06T12:22:54.143Z,5.10
2019-02-06T12:25:22.631Z,5.10
2019-02-06T12:27:53.011Z,5.10
2019-02-06T12:30:32.855Z,5.00
2019-02-06T12:33:01.386Z,5.00
2019-02-06T12:35:29.846Z,5.00
2019-02-06T12:37:58.335Z,5.00
2019-02-06T12:40:27.110Z,4.90
2019-02-06T12:42:55.671Z,4.90
2019-02-06T12:45:25.139Z,4.90
2019-02-06T12:47:54.111Z,4.90
2019-02-06T12:50:23.800Z,4.90
2019-02-06T12:52:52.290Z,4.90
2019-02-06T12:55:29.186Z,4.90
2019-02-06T12:57:57.672Z,4.90
2019-02-06T13:00:28.624Z,4.90
2019-02-06T13:02:59.862Z,4.90
2019-02-06T13:05:27.737Z,4.90
2019-02-06T13:07:56.385Z,4.90
2019-02-06T13:10:33.258Z,4.90
2019-02-06T13:12:55.146Z,4.90
2019-02-06T13:15:23.642Z,4.90
2019-02-06T13:17:52.455Z,4.80
2019-02-06T13:20:23.034Z,4.80
2019-02-06T13:22:51.455Z,4.80
2019-02-06T13:25:20.119Z,4.80
2019-02-06T13:27:48.738Z,4.80
2019-02-06T13:30:28.456Z,4.80
2019-02-06T13:32:57.128Z,4.80
2019-02-06T13:35:25.739Z,4.80
2019-02-06T13:37:54.254Z,4.80
2019-02-06T13:40:24.608Z,4.80
2019-02-06T13:42:53.226Z,4.80
2019-02-06T13:45:36.679Z,4.80
2019-02-06T13:48:05.711Z,4.80
2019-02-06T13:50:34.314Z,4.80
2019-02-06T13:53:02.904Z,4.80
2019-02-06T13:55:31.347Z,4.80
2019-02-06T13:57:59.932Z,4.80
2019-02-06T14:00:31.159Z,4.80
2019-02-06T14:02:59.842Z,4.80
2019-02-06T14:05:29.900Z,4.80
2019-02-06T14:08:00.683Z,4.80
2019-02-06T14:10:31.186Z,4.90
2019-02-06T14:13:00.211Z,4.90
2019-02-06T14:15:37.587Z,4.90
2019-02-06T14:18:06.671Z,4.90
2019-02-06T14:20:35.427Z,4.90
2019-02-06T14:23:06.948Z,4.90
2019-02-06T14:25:45.086Z,5.00
2019-02-06T14:28:24.853Z,5.00
2019-02-06T14:31:13.707Z,5.00
2019-02-06T14:34:20.211Z,5.00
2019-02-06T14:37:00.523Z,5.00
2019-02-06T14:39:32.319Z,5.10
2019-02-06T14:42:06.402Z,5.10
2019-02-06T14:44:46.774Z,5.10
2019-02-06T14:47:37.853Z,5.10
2019-02-06T14:50:24.199Z,5.10
2019-02-06T14:52:58.406Z,5.10
2019-02-06T14:55:33.135Z,5.10
2019-02-06T14:58:22.608Z,5.10
2019-02-06T15:01:05.939Z,5.10
2019-02-06T15:04:00.909Z,5.10
2019-02-06T15:06:50.084Z,5.10
2019-02-06T15:09:54.331Z,5.10
2019-02-06T15:12:42.176Z,5.10
2019-02-06T15:15:25.465Z,5.10
2019-02-06T15:18:11.821Z,5.10
2019-02-06T15:20:54.863Z,5.10
2019-02-06T15:23:33.224Z,5.10
2019-02-06T15:26:13.792Z,5.10
2019-02-06T15:29:03.795Z,5.20
2019-02-06T15:31:50.296Z,5.20
2019-02-06T15:34:35.991Z,5.20
2019-02-06T15:37:31.661Z,5.10
2019-02-06T15:40:34.249Z,5.20
2019-02-06T15:43:10.056Z,5.20
2019-02-06T15:49:16.540Z,5.20
2019-02-06T15:52:18.083Z,5.20
2019-02-06T15:54:56.314Z,5.20
2019-02-06T15:57:40.106Z,5.20
2019-02-06T16:00:11.592Z,5.20
2019-02-06T16:02:48.829Z,5.20
2019-02-06T16:05:37.874Z,5.20
2019-02-06T16:08:16.251Z,5.20
2019-02-06T16:10:57.268Z,5.20
2019-02-06T16:13:52.296Z,5.20
2019-02-06T16:16:47.012Z,5.20
2019-02-06T16:19:35.921Z,5.20
2019-02-06T16:22:12.387Z,5.20
2019-02-06T16:24:49.539Z,5.20
2019-02-06T16:27:25.320Z,5.20
2019-02-06T16:30:00.627Z,5.20
2019-02-06T16:32:51.594Z,5.20
2019-02-06T16:35:29.131Z,5.20
2019-02-06T16:38:12.331Z,5.20
2019-02-06T16:40:55.891Z,5.20
2019-02-06T16:43:28.834Z,5.20
2019-02-06T16:46:22.892Z,5.20
2019-02-06T16:49:01.198Z,5.20
2019-02-06T16:51:35.289Z,5.20
2019-02-06T16:54:20.725Z,5.20
2019-02-06T16:56:52.337Z,5.20
2019-02-06T16:59:24.285Z,5.30
2019-02-06T17:01:55.799Z,5.30
2019-02-06T17:04:39.015Z,5.20
2019-02-06T17:07:13.685Z,5.30
2019-02-06T17:10:13.614Z,5.20
2019-02-06T17:12:53.707Z,5.30
2019-02-06T17:15:41.631Z,5.30
2019-02-06T17:18:24.793Z,5.30
2019-02-06T17:21:02.235Z,5.30
2019-02-06T17:23:48.561Z,5.30
2019-02-06T17:26:20.077Z,5.30
2019-02-06T17:28:54.229Z,5.30
2019-02-06T17:31:32.165Z,5.30
2019-02-06T17:34:18.352Z,5.30
2019-02-06T17:36:55.343Z,5.30
2019-02-06T17:39:32.771Z,5.30
2019-02-06T17:42:15.735Z,5.30
2019-02-06T17:45:11.516Z,5.30
2019-02-06T17:47:51.435Z,5.30
2019-02-06T17:50:37.642Z,5.30
2019-02-06T17:53:14.927Z,5.30
2019-02-06T17:55:46.356Z,5.30
2019-02-06T17:58:15.008Z,5.30
2019-02-06T18:01:00.408Z,5.30
2019-02-06T18:03:30.999Z,5.30
2019-02-06T18:05:59.509Z,5.20
2019-02-06T18:08:28.991Z,5.20
2019-02-06T18:10:58.777Z,5.30
2019-02-06T18:13:27.406Z,5.20
2019-02-06T18:15:59.528Z,5.20
2019-02-06T18:18:28.275Z,5.20
2019-02-06T18:20:57.899Z,5.20
2019-02-06T18:23:26.507Z,5.30
2019-02-06T18:25:55.899Z,5.30
2019-02-06T18:28:24.351Z,5.20
2019-02-06T18:30:52.960Z,5.30
2019-02-06T18:33:21.436Z,5.30
2019-02-06T18:35:50.161Z,5.20
2019-02-06T18:38:18.584Z,5.30
2019-02-06T18:40:48.447Z,5.30
2019-02-06T18:43:17.089Z,5.30
2019-02-06T18:45:45.865Z,5.30
2019-02-06T18:48:14.782Z,5.30
2019-02-06T18:50:43.357Z,5.30
2019-02-06T18:53:12.088Z,5.30
2019-02-06T18:55:40.887Z,5.30
2019-02-06T18:58:10.418Z,5.30
2019-02-06T19:00:43.751Z,5.30
2019-02-06T19:03:17.989Z,5.30
2019-02-06T19:05:46.591Z,5.30
2019-02-06T19:08:15.246Z,5.30
2019-02-06T19:10:43.927Z,5.30
2019-02-06T19:13:12.707Z,5.30
2019-02-06T19:15:41.170Z,5.30
2019-02-06T19:18:11.159Z,5.30
2019-02-06T19:20:39.671Z,5.30
2019-02-06T19:23:08.257Z,5.20
2019-02-06T19:25:36.704Z,5.30
2019-02-06T19:28:05.439Z,5.30
2019-02-06T19:30:41.943Z,5.30
2019-02-06T19:33:11.015Z,5.30
2019-02-06T19:35:39.435Z,5.20
2019-02-06T19:38:07.882Z,5.20
2019-02-06T19:40:36.469Z,5.20
2019-02-06T19:43:05.343Z,5.20
2019-02-06T19:45:33.935Z,5.30
2019-02-06T19:48:02.431Z,5.30
2019-02-06T19:50:33.651Z,5.20
2019-02-06T19:53:02.193Z,5.30
2019-02-06T19:55:30.687Z,5.30
2019-02-06T19:57:59.332Z,5.20
2019-02-06T20:00:32.364Z,5.20
2019-02-06T20:03:00.944Z,5.20
2019-02-06T20:05:29.793Z,5.20
2019-02-06T20:07:58.419Z,5.20
2019-02-06T20:10:29.910Z,5.30
2019-02-06T20:12:58.507Z,5.20
2019-02-06T20:15:27.002Z,5.30
2019-02-06T20:17:55.491Z,5.20
2019-02-06T20:20:28.253Z,5.30
2019-02-06T20:23:04.692Z,5.30
2019-02-06T20:25:33.211Z,5.30
2019-02-06T20:28:01.756Z,5.20
2019-02-06T20:30:31.816Z,5.20
2019-02-06T20:33:00.318Z,5.20
2019-02-06T20:35:29.280Z,5.20
2019-02-06T20:37:58.327Z,5.20
2019-02-06T20:40:32.876Z,5.30
2019-02-06T20:43:01.398Z,5.30
2019-02-06T20:45:30.232Z,5.20
2019-02-06T20:47:58.797Z,5.30
2019-02-06T20:50:32.625Z,5.20
2019-02-06T20:53:02.962Z,5.20
2019-02-06T20:55:31.636Z,5.30
2019-02-06T20:58:05.992Z,5.30
2019-02-06T21:00:37.035Z,5.30
2019-02-06T21:03:06.096Z,5.20
2019-02-06T21:05:34.773Z,5.20
2019-02-06T21:08:03.639Z,5.30
2019-02-06T21:10:34.808Z,5.30
2019-02-06T21:13:03.359Z,5.30
2019-02-06T21:15:32.876Z,5.20
2019-02-06T21:18:02.570Z,5.30
2019-02-06T21:20:31.074Z,5.30
2019-02-06T21:23:40.106Z,5.30
2019-02-06T21:26:08.534Z,5.30
2019-02-06T21:28:36.979Z,5.30
2019-02-06T21:31:05.843Z,5.20
2019-02-06T21:33:34.291Z,5.30
2019-02-06T21:36:05.967Z,5.20
2019-02-06T21:38:34.434Z,5.30
2019-02-06T21:41:02.928Z,5.20
2019-02-06T21:43:31.380Z,5.20
2019-02-06T21:46:00.082Z,5.20
2019-02-06T21:48:29.939Z,5.30
2019-02-06T21:50:58.362Z,5.30
2019-02-06T21:53:26.883Z,5.30
2019-02-06T21:55:55.371Z,5.20
2019-02-06T21:58:23.803Z,5.20
2019-02-06T22:00:52.247Z,5.20
2019-02-06T22:03:20.687Z,5.20
2019-02-06T22:05:52.704Z,5.30
2019-02-06T22:08:21.135Z,5.30
2019-02-06T22:10:50.352Z,5.30
2019-02-06T22:13:18.847Z,5.30
2019-02-06T22:15:47.287Z,5.30
2019-02-06T22:18:16.211Z,5.30
2019-02-06T22:20:44.632Z,5.30
2019-02-06T22:23:13.092Z,5.30
2019-02-06T22:25:41.547Z,5.30
2019-02-06T22:28:09.992Z,5.30
2019-02-06T22:30:38.440Z,5.30
2019-02-06T22:33:07.491Z,5.40
2019-02-06T22:35:36.082Z,5.30
2019-02-06T22:38:04.916Z,5.30
2019-02-06T22:40:48.355Z,5.30
2019-02-06T22:43:16.784Z,5.30
2019-02-06T22:45:45.487Z,5.30
2019-02-06T22:48:15.864Z,5.40
2019-02-06T22:50:44.396Z,5.40
2019-02-06T22:53:12.818Z,5.40
2019-02-06T22:55:41.266Z,5.40
2019-02-06T22:58:09.854Z,5.40
2019-02-06T23:00:49.115Z,5.40
2019-02-06T23:03:27.013Z,5.40
2019-02-06T23:05:55.430Z,5.40
2019-02-06T23:08:23.884Z,5.40
2019-02-06T23:10:52.407Z,5.40
2019-02-06T23:13:21.102Z,5.40
2019-02-06T23:15:49.682Z,5.40
2019-02-06T23:18:18.206Z,5.40
2019-02-06T23:20:46.694Z,5.50
2019-02-06T23:23:15.375Z,5.40
2019-02-06T23:25:43.792Z,5.40
2019-02-06T23:28:12.605Z,5.40
2019-02-06T23:30:41.112Z,5.50
2019-02-06T23:33:09.536Z,5.50
2019-02-06T23:35:37.986Z,5.50
2019-02-06T23:38:06.471Z,5.50
2019-02-06T23:40:34.914Z,5.50
2019-02-06T23:43:03.872Z,5.50
2019-02-06T23:45:32.292Z,5.50
2019-02-06T23:48:00.730Z,5.50
2019-02-06T23:50:29.156Z,5.50
2019-02-06T23:52:57.673Z,5.50
2019-02-06T23:55:26.368Z,5.50
2019-02-06T23:57:55.094Z,5.50
